createdAt,value
2023-04-01T00:03:32.206Z,98951.28
2023-04-01T00:13:33.685Z,98955.56
2023-04-01T00:23:35.008Z,98955.03
2023-04-01T00:33:36.357Z,98957.88
2023-04-01T00:43:37.658Z,98969.16
2023-04-01T00:53:38.963Z,98979.63
2023-04-01T01:03:40.288Z,98989.13
2023-04-01T01:13:42.202Z,98990.09
2023-04-01T01:23:43.474Z,98992.72
2023-04-01T01:33:44.698Z,98998.38
2023-04-01T01:43:45.921Z,99003.41
2023-04-01T01:53:47.175Z,99017.00
2023-04-01T02:03:48.471Z,99031.78
2023-04-01T02:13:49.748Z,99028.09
2023-04-01T02:23:50.988Z,99039.53
2023-04-01T02:33:52.319Z,99043.69
2023-04-01T02:43:53.598Z,99044.25
2023-04-01T02:53:54.869Z,99044.03
2023-04-01T03:03:56.117Z,99053.16
2023-04-01T03:13:57.392Z,99067.91
2023-04-01T03:23:58.654Z,99075.56
2023-04-01T03:33:59.887Z,99083.31
2023-04-01T03:44:01.171Z,99085.50
2023-04-01T03:54:03.179Z,99092.41
2023-04-01T04:04:05.626Z,99102.97
2023-04-01T04:14:06.984Z,99106.66
2023-04-01T04:24:08.261Z,99120.34
2023-04-01T04:34:09.501Z,99130.00
2023-04-01T04:44:10.709Z,99139.69
2023-04-01T04:54:11.951Z,99152.06
2023-04-01T05:04:13.266Z,99163.47
2023-04-01T05:14:14.531Z,99180.84
2023-04-01T05:24:15.840Z,99180.22
2023-04-01T05:34:17.157Z,99196.97
2023-04-01T05:44:18.555Z,99211.28
2023-04-01T05:54:19.842Z,99226.06
2023-04-01T06:04:21.113Z,99242.47
2023-04-01T06:14:22.436Z,99266.13
2023-04-01T06:24:23.729Z,99273.25
2023-04-01T06:34:24.995Z,99298.75
2023-04-01T06:44:26.269Z,99304.94
2023-04-01T06:54:27.525Z,99320.66
2023-04-01T07:04:28.798Z,99328.41
2023-04-01T07:14:31.367Z,99328.59
2023-04-01T07:24:32.621Z,99358.50
2023-04-01T07:34:33.928Z,99366.34
2023-04-01T07:44:35.209Z,99387.16
2023-04-01T07:54:36.525Z,99412.03
2023-04-01T08:04:37.844Z,99420.31
2023-04-01T13:49:38.536Z,99784.03
2023-04-01T13:59:43.019Z,99802.44
2023-04-01T14:09:44.322Z,99813.81
2023-04-01T14:19:45.636Z,99828.66
2023-04-01T14:29:46.879Z,99834.06
2023-04-01T14:39:48.149Z,99840.13
2023-04-01T14:49:49.394Z,99845.19
2023-04-01T14:59:50.644Z,99861.16
2023-04-01T15:09:51.895Z,99870.59
2023-04-01T15:19:53.148Z,99883.81
2023-04-01T15:29:54.460Z,99895.97
2023-04-01T15:39:55.713Z,99912.66
2023-04-01T15:49:56.946Z,99915.28
2023-04-01T15:59:58.190Z,99920.53
2023-04-01T16:09:59.507Z,99935.63
2023-04-01T16:20:00.786Z,99932.09
2023-04-01T16:30:02.065Z,99937.31
2023-04-01T16:40:03.339Z,99932.16
2023-04-01T16:50:04.660Z,99958.78
2023-04-01T17:00:05.969Z,99986.63
2023-04-01T17:10:07.213Z,100002.88
2023-04-01T17:20:08.455Z,100021.53
2023-04-01T17:30:09.715Z,100043.09
2023-04-01T17:40:10.991Z,100069.00
2023-04-01T17:50:12.247Z,100078.47
2023-04-01T18:00:13.516Z,100104.75
2023-04-01T18:10:14.756Z,100124.25
2023-04-01T18:20:16.013Z,100148.41
2023-04-01T18:30:17.296Z,100169.19
2023-04-01T18:40:18.537Z,100196.97
2023-04-01T18:50:19.832Z,100216.22
2023-04-01T19:00:21.105Z,100244.91
2023-04-01T19:10:22.444Z,100270.53
2023-04-01T19:20:23.706Z,100291.25
2023-04-01T19:30:24.950Z,100312.81
2023-04-01T19:40:26.220Z,100326.22
2023-04-01T19:50:27.474Z,100340.50
2023-04-01T20:00:28.743Z,100367.47
2023-04-01T20:10:30.017Z,100398.84
2023-04-01T20:20:31.308Z,100425.03
2023-04-01T20:30:32.567Z,100439.47
2023-04-01T20:40:33.797Z,100463.22
2023-04-01T20:50:35.564Z,100471.31
2023-04-01T21:00:36.837Z,100505.13
2023-04-01T21:10:38.112Z,100524.34
2023-04-01T21:20:39.379Z,100538.75
2023-04-01T21:30:40.831Z,100568.97
2023-04-01T21:40:42.064Z,100596.22
2023-04-01T21:50:43.309Z,100609.31
2023-04-01T22:00:44.542Z,100623.34
2023-04-01T22:10:45.817Z,100647.63
2023-04-01T22:20:47.111Z,100670.22
2023-04-01T22:30:48.346Z,100687.88
2023-04-01T22:40:49.589Z,100703.50
2023-04-01T22:50:50.839Z,100713.09
2023-04-01T23:00:52.145Z,100739.25
2023-04-01T23:10:53.428Z,100749.69
2023-04-01T23:20:54.734Z,100777.59
2023-04-01T23:30:55.977Z,100791.69
2023-04-01T23:40:57.279Z,100809.13
2023-04-01T23:50:58.517Z,100823.06
